Time;durP1;ratioP1;P1;durP2;ratioP2;P2;SDS_P1;SDS_P2;PMS_P1;PMS_P2;Temp;Humidity;BMP_temperature;BMP_pressure;BME280_temperature;BME280_humidity;BME280_pressure;Samples;Min_cycle;Max_cycle;Signal;HPM_P1;HPM_P2
2021/09/21 00:02:09;;;;;;;;;;;;;;;7.27;47.28;96328.72;4994698;28;20407;-62
2021/09/21 00:04:34;;;;;;;;;;;;;;;7.24;50.16;96338.75;4994568;28;20076;-62
2021/09/21 00:06:59;;;;;;;;;;;;;;;6.93;47.82;96350.28;4994606;28;20049;-63
2021/09/21 00:09:25;;;;;;;;;;;;;;;6.81;46.51;96357.50;4994857;28;19986;-62
2021/09/21 00:11:51;;;;;;;;;;;;;;;6.77;47.65;96346.34;4994125;28;19981;-62
2021/09/21 00:14:17;;;;;;;;;;;;;;;6.88;47.34;96344.56;4994749;28;20005;-62
2021/09/21 00:16:42;;;;;;;;;;;;;;;6.89;48.57;96343.59;4994065;28;19989;-62
2021/09/21 00:19:07;;;;;;;;;;;;;;;6.77;45.92;96351.63;4994530;28;20387;-63
2021/09/21 00:21:32;;;;;;;;;;;;;;;6.77;46.19;96340.22;4993663;28;20072;-62
2021/09/21 00:23:58;;;;;;;;;;;;;;;6.78;46.14;96341.91;4993742;28;19982;-62
2021/09/21 00:26:23;;;;;;;;;;;;;;;6.77;50.56;96345.53;4993912;28;19972;-63
2021/09/21 00:28:48;;;;;;;;;;;;;;;6.60;48.35;96350.47;4993524;28;20045;-62
2021/09/21 00:31:14;;;;;;;;;;;;;;;6.49;46.21;96359.38;4994233;28;20378;-62
2021/09/21 00:34:04;;;;;;;;;;;;;;;6.49;46.11;96363.81;4993700;28;20447;-62
2021/09/21 00:36:30;;;;;;;;;;;;;;;6.53;46.23;96370.50;4988838;28;19990;-62
2021/09/21 00:38:55;;;;;;;;;;;;;;;6.47;44.34;96373.66;5007894;28;19981;-62
2021/09/21 00:41:20;;;;;;;;;;;;;;;6.40;45.20;96370.72;4993119;28;19997;-62
2021/09/21 00:43:46;;;;;;;;;;;;;;;6.31;45.52;96375.00;4993022;28;19974;-62
2021/09/21 00:46:11;;;;;;;;;;;;;;;6.10;46.32;96353.88;4993888;28;20045;-62
2021/09/21 00:48:37;;;;;;;;;;;;;;;6.19;47.29;96353.06;4985834;28;20128;-62
2021/09/21 00:51:02;;;;;;;;;;;;;;;6.21;46.67;96364.38;4993537;28;19983;-62
2021/09/21 00:53:28;;;;;;;;;;;;;;;6.17;49.95;96370.91;4992929;28;19986;-62
2021/09/21 00:55:54;;;;;;;;;;;;;;;5.81;49.41;96381.81;4993126;28;20068;-62
2021/09/21 00:58:19;;;;;;;;;;;;;;;5.76;45.94;96376.09;4993375;28;20673;-62
2021/09/21 01:00:44;;;;;;;;;;;;;;;5.83;45.84;96385.19;4992964;28;19997;-62
2021/09/21 01:03:10;;;;;;;;;;;;;;;5.71;44.83;96391.47;4992821;28;19922;-62
2021/09/21 01:05:36;;;;;;;;;;;;;;;5.90;47.40;96384.63;4992712;28;19998;-62
2021/09/21 01:08:01;;;;;;;;;;;;;;;5.88;46.78;96379.47;4992247;28;19993;-62
2021/09/21 01:10:29;;;;;;;;;;;;;;;5.91;45.66;96376.59;4992700;28;19981;-62
2021/09/21 01:12:54;;;;;;;;;;;;;;;5.94;46.94;96371.03;4992367;28;19986;-62
2021/09/21 01:15:19;;;;;;;;;;;;;;;5.76;45.05;96362.03;4992382;28;20000;-62
2021/09/21 01:17:45;;;;;;;;;;;;;;;5.76;45.58;96357.59;4990605;28;19986;-62
2021/09/21 01:20:11;;;;;;;;;;;;;;;5.79;46.92;96356.47;4991765;28;20475;-62
2021/09/21 01:22:36;;;;;;;;;;;;;;;5.82;48.09;96358.88;4992364;28;20029;-62
2021/09/21 01:25:02;;;;;;;;;;;;;;;5.78;48.57;96368.03;4977709;28;19985;-62
2021/09/21 01:27:27;;;;;;;;;;;;;;;5.75;47.79;96371.78;4992343;28;19966;-62
2021/09/21 01:29:52;;;;;;;;;;;;;;;5.60;45.79;96384.44;4992394;28;20454;-62
2021/09/21 01:32:20;;;;;;;;;;;;;;;5.32;45.38;96376.16;4992530;28;19985;-62
2021/09/21 01:34:45;;;;;;;;;;;;;;;5.50;47.70;96386.19;4992496;28;19962;-62
2021/09/21 01:37:12;;;;;;;;;;;;;;;5.61;46.38;96380.81;4991916;28;19992;-62
2021/09/21 01:39:38;;;;;;;;;;;;;;;5.62;45.40;96377.25;4991351;28;19978;-62
2021/09/21 01:42:03;;;;;;;;;;;;;;;5.46;46.34;96377.66;4992317;28;20390;-62
2021/09/21 01:44:28;;;;;;;;;;;;;;;5.51;48.53;96383.41;4991848;28;19989;-62
2021/09/21 01:46:53;;;;;;;;;;;;;;;5.52;46.69;96386.88;4992105;28;20076;-62
2021/09/21 01:49:20;;;;;;;;;;;;;;;5.22;46.57;96389.28;4984906;28;20439;-62
2021/09/21 01:51:56;;;;;;;;;;;;;;;4.98;46.96;96382.38;4991363;28;19997;-62
2021/09/21 01:54:32;;;;;;;;;;;;;;;5.30;47.28;96399.19;4992014;28;19966;-62
2021/09/21 01:59:41;;;;;;;;;;;;;;;5.42;46.44;96382.38;4991178;28;20016;-62
2021/09/21 02:02:07;;;;;;;;;;;;;;;5.47;46.84;96384.63;4991913;28;19986;-62
2021/09/21 02:04:32;;;;;;;;;;;;;;;5.42;46.09;96390.28;4991086;28;19993;-62
2021/09/21 02:06:57;;;;;;;;;;;;;;;5.48;46.20;96387.13;4991404;28;20013;-62
2021/09/21 02:09:22;;;;;;;;;;;;;;;5.45;47.73;96390.03;4991277;28;19994;-62
2021/09/21 02:11:48;;;;;;;;;;;;;;;5.34;46.64;96396.19;4990828;28;19972;-62
2021/09/21 02:14:14;;;;;;;;;;;;;;;4.77;48.02;96404.25;4991657;28;20042;-62
2021/09/21 02:16:40;;;;;;;;;;;;;;;5.18;48.14;96398.41;4990997;28;19990;-62
2021/09/21 02:19:05;;;;;;;;;;;;;;;5.25;46.10;96402.25;4991447;28;19970;-62
2021/09/21 02:21:30;;;;;;;;;;;;;;;5.33;46.44;96398.97;4976861;28;19921;-62
2021/09/21 02:23:56;;;;;;;;;;;;;;;5.31;49.39;96399.06;4991173;28;20081;-62
2021/09/21 02:26:21;;;;;;;;;;;;;;;5.20;47.25;96399.97;4989876;28;20331;-62
2021/09/21 02:28:46;;;;;;;;;;;;;;;5.26;48.88;96400.41;4990903;28;19989;-62
2021/09/21 02:31:12;;;;;;;;;;;;;;;5.20;48.29;96393.84;4990711;28;20020;-62
2021/09/21 02:33:37;;;;;;;;;;;;;;;5.16;47.78;96401.19;4990854;28;19986;-62
2021/09/21 02:36:03;;;;;;;;;;;;;;;5.21;46.55;96395.53;4990447;28;20671;-62
2021/09/21 02:38:28;;;;;;;;;;;;;;;5.07;47.96;96397.47;4991123;28;19943;-62
2021/09/21 02:40:53;;;;;;;;;;;;;;;5.07;50.75;96392.19;4990543;28;19976;-62
2021/09/21 02:43:19;;;;;;;;;;;;;;;4.99;52.53;96391.94;4990207;28;19974;-62
2021/09/21 02:45:44;;;;;;;;;;;;;;;4.80;47.63;96389.97;4989703;28;20358;-62
2021/09/21 02:48:09;;;;;;;;;;;;;;;4.37;51.80;96395.03;4989873;28;19921;-62
2021/09/21 02:50:34;;;;;;;;;;;;;;;4.19;49.61;96400.75;4991432;28;19979;-62
2021/09/21 02:53:00;;;;;;;;;;;;;;;3.87;49.45;96405.84;4990078;28;20048;-62
2021/09/21 02:55:25;;;;;;;;;;;;;;;3.82;50.63;96398.31;4990771;28;19986;-62
2021/09/21 02:57:50;;;;;;;;;;;;;;;4.10;50.49;96397.97;4990163;28;20457;-62
2021/09/21 03:00:19;;;;;;;;;;;;;;;4.24;50.10;96399.56;4990424;28;20427;-62
2021/09/21 03:02:45;;;;;;;;;;;;;;;4.16;52.06;96403.66;4990249;28;20420;-62
2021/09/21 03:05:18;;;;;;;;;;;;;;;4.32;49.03;96399.81;4989372;28;19986;-62
2021/09/21 03:07:47;;;;;;;;;;;;;;;4.45;48.74;96403.16;4989949;28;19998;-62
2021/09/21 03:17:47;;;;;;;;;;;;;;;4.93;46.65;96410.94;4990009;28;20004;-62
2021/09/21 03:20:12;;;;;;;;;;;;;;;4.95;49.34;96409.00;4990546;28;20049;-62
2021/09/21 03:22:38;;;;;;;;;;;;;;;4.95;47.50;96409.00;4990390;28;19990;-62
2021/09/21 03:25:03;;;;;;;;;;;;;;;5.06;47.75;96403.72;4989722;28;19949;-62
2021/09/21 03:27:29;;;;;;;;;;;;;;;5.03;47.08;96405.75;4990012;28;20049;-62
2021/09/21 03:29:54;;;;;;;;;;;;;;;5.04;49.82;96410.06;4989987;28;20023;-62
2021/09/21 03:32:19;;;;;;;;;;;;;;;4.90;47.07;96406.72;4988755;28;19985;-62
2021/09/21 03:34:44;;;;;;;;;;;;;;;4.83;50.80;96408.19;4990600;28;19976;-62
2021/09/21 03:37:10;;;;;;;;;;;;;;;4.78;51.16;96405.06;4988610;28;20036;-62
2021/09/21 03:39:35;;;;;;;;;;;;;;;4.66;48.51;96394.50;4989826;28;20498;-62
2021/09/21 03:42:01;;;;;;;;;;;;;;;4.67;49.08;96406.78;4990440;28;20009;-62
2021/09/21 03:44:27;;;;;;;;;;;;;;;4.54;49.28;96400.75;4989958;28;19990;-62
2021/09/21 03:46:52;;;;;;;;;;;;;;;4.24;48.47;96404.81;4990614;28;20029;-62
2021/09/21 03:49:17;;;;;;;;;;;;;;;4.28;53.08;96414.16;4985767;28;19990;-62
2021/09/21 03:51:43;;;;;;;;;;;;;;;4.29;56.51;96415.88;4989811;28;19974;-62
2021/09/21 03:54:09;;;;;;;;;;;;;;;4.16;49.63;96424.72;4990368;28;19969;-62
2021/09/21 03:56:35;;;;;;;;;;;;;;;3.99;49.92;96422.53;4989840;28;20002;-62
2021/09/21 03:59:01;;;;;;;;;;;;;;;4.22;50.11;96425.22;4990250;28;20017;-62
2021/09/21 04:01:26;;;;;;;;;;;;;;;4.57;49.75;96426.91;4989989;28;20002;-62
2021/09/21 04:03:51;;;;;;;;;;;;;;;4.73;51.68;96429.16;4993698;28;20020;-62
2021/09/21 04:06:16;;;;;;;;;;;;;;;4.92;48.25;96428.56;4993517;28;20627;-62
2021/09/21 04:08:42;;;;;;;;;;;;;;;4.93;48.90;96430.22;4992850;28;19990;-62
2021/09/21 04:11:07;;;;;;;;;;;;;;;4.78;47.93;96447.28;4992980;28;20065;-62
2021/09/21 04:13:32;;;;;;;;;;;;;;;4.83;51.28;96453.03;4993167;28;20013;-62
2021/09/21 04:15:57;;;;;;;;;;;;;;;4.81;49.66;96454.94;4992804;28;20739;-62
2021/09/21 04:18:23;;;;;;;;;;;;;;;4.80;48.57;96459.38;4993800;28;19974;-62
2021/09/21 04:20:49;;;;;;;;;;;;;;;4.92;49.29;96462.00;4992819;28;19997;-62
2021/09/21 04:23:14;;;;;;;;;;;;;;;4.91;50.94;96460.34;4993302;28;20005;-62
2021/09/21 04:25:40;;;;;;;;;;;;;;;4.88;48.61;96464.06;4992958;28;19994;-62
2021/09/21 04:28:06;;;;;;;;;;;;;;;4.77;47.73;96466.72;4992878;28;19985;-62
2021/09/21 04:30:31;;;;;;;;;;;;;;;4.82;47.36;96464.53;4993068;28;20040;-62
2021/09/21 04:32:57;;;;;;;;;;;;;;;4.87;47.44;96466.81;4992884;28;20108;-62
2021/09/21 04:35:22;;;;;;;;;;;;;;;4.83;49.24;96471.50;4991907;28;19970;-62
2021/09/21 04:37:48;;;;;;;;;;;;;;;4.73;47.66;96465.28;4992502;28;19985;-62
2021/09/21 04:40:14;;;;;;;;;;;;;;;4.70;48.85;96456.63;4992767;28;20072;-62
2021/09/21 04:42:40;;;;;;;;;;;;;;;4.67;51.07;96458.69;4992813;28;19982;-62
2021/09/21 04:45:05;;;;;;;;;;;;;;;4.71;48.83;96457.47;4985065;28;20084;-62
2021/09/21 04:47:30;;;;;;;;;;;;;;;4.76;50.45;96463.22;4988024;28;20653;-62
2021/09/21 04:49:56;;;;;;;;;;;;;;;4.66;48.00;96463.09;4985422;28;20001;-62
2021/09/21 04:52:21;;;;;;;;;;;;;;;4.51;52.54;96470.41;4987895;28;19993;-62
2021/09/21 04:54:46;;;;;;;;;;;;;;;4.47;52.91;96476.03;4986328;28;20442;-62
2021/09/21 04:57:12;;;;;;;;;;;;;;;4.38;49.00;96488.97;4983329;28;20013;-62
2021/09/21 04:59:37;;;;;;;;;;;;;;;4.53;53.38;96496.69;4985045;28;20434;-62
2021/09/21 05:02:02;;;;;;;;;;;;;;;4.44;49.01;96501.69;4985456;28;20072;-62
2021/09/21 05:04:27;;;;;;;;;;;;;;;4.43;48.31;96510.53;4985100;28;20056;-62
2021/09/21 05:06:53;;;;;;;;;;;;;;;4.41;49.44;96509.00;4985372;28;19970;-62
2021/09/21 05:09:18;;;;;;;;;;;;;;;4.47;50.64;96518.22;4984981;28;19990;-62
2021/09/21 05:11:46;;;;;;;;;;;;;;;4.19;50.71;96526.44;4985242;28;19966;-62
2021/09/21 05:14:12;;;;;;;;;;;;;;;4.47;49.07;96529.63;4983369;28;20204;-62
2021/09/21 05:16:37;;;;;;;;;;;;;;;4.66;49.65;96531.69;4984962;28;20680;-63
2021/09/21 05:19:03;;;;;;;;;;;;;;;4.55;48.50;96539.56;4985686;28;19989;-62
2021/09/21 05:21:28;;;;;;;;;;;;;;;4.66;50.31;96546.69;4984853;28;20622;-62
2021/09/21 05:23:53;;;;;;;;;;;;;;;4.75;51.30;96545.97;4984158;28;20477;-61
2021/09/21 05:26:19;;;;;;;;;;;;;;;4.74;48.83;96549.56;4984486;28;19966;-62
2021/09/21 05:28:44;;;;;;;;;;;;;;;4.84;49.45;96552.34;4984207;28;19994;-62
2021/09/21 05:31:09;;;;;;;;;;;;;;;4.90;49.36;96551.84;4983647;28;19981;-62
2021/09/21 05:33:34;;;;;;;;;;;;;;;4.93;48.24;96546.34;4983688;28;19990;-62
2021/09/21 05:36:00;;;;;;;;;;;;;;;4.95;50.50;96556.78;4983684;28;19989;-62
2021/09/21 05:38:25;;;;;;;;;;;;;;;4.97;48.07;96555.69;4983998;28;19963;-62
2021/09/21 05:40:50;;;;;;;;;;;;;;;5.01;48.75;96566.88;4984123;28;20001;-62
2021/09/21 05:43:16;;;;;;;;;;;;;;;5.15;48.12;96579.03;4983447;28;20388;-62
2021/09/21 05:45:41;;;;;;;;;;;;;;;5.17;48.13;96589.47;4983939;28;20510;-62
2021/09/21 05:48:06;;;;;;;;;;;;;;;5.25;47.63;96608.19;4980257;28;19918;-62
2021/09/21 05:50:32;;;;;;;;;;;;;;;5.41;48.40;96614.91;4980776;28;19922;-62
2021/09/21 05:52:57;;;;;;;;;;;;;;;5.44;47.18;96615.50;4984230;28;19917;-62
2021/09/21 05:55:22;;;;;;;;;;;;;;;5.51;46.57;96615.03;4984288;28;19925;-62
2021/09/21 05:57:48;;;;;;;;;;;;;;;5.58;46.66;96597.72;4983866;28;20015;-62
2021/09/21 06:00:13;;;;;;;;;;;;;;;5.70;46.50;96590.59;4984562;28;19918;-62
2021/09/21 06:02:39;;;;;;;;;;;;;;;5.71;46.36;96593.13;4984288;28;19924;-62
2021/09/21 06:05:04;;;;;;;;;;;;;;;5.70;46.62;96586.16;4983547;28;20294;-62
2021/09/21 06:07:30;;;;;;;;;;;;;;;5.76;46.66;96589.28;4983975;28;20016;-63
2021/09/21 06:09:55;;;;;;;;;;;;;;;5.74;46.86;96589.41;4979519;28;19914;-62
2021/09/21 06:12:20;;;;;;;;;;;;;;;5.76;46.48;96581.34;4983990;28;19989;-62
2021/09/21 06:14:45;;;;;;;;;;;;;;;5.82;46.12;96588.78;4983508;28;20473;-62
2021/09/21 06:17:10;;;;;;;;;;;;;;;5.94;46.27;96586.94;4983678;28;19997;-62
2021/09/21 06:19:36;;;;;;;;;;;;;;;6.09;46.29;96583.03;4983758;28;19974;-62
2021/09/21 06:22:01;;;;;;;;;;;;;;;6.23;46.13;96578.44;4984159;28;20040;-62
2021/09/21 06:24:26;;;;;;;;;;;;;;;6.36;46.52;96587.03;4983015;28;19989;-62
2021/09/21 06:26:51;;;;;;;;;;;;;;;6.33;46.53;96595.22;4984412;28;20064;-62
2021/09/21 06:29:17;;;;;;;;;;;;;;;6.61;46.15;96589.47;4983926;28;19990;-63
2021/09/21 06:31:42;;;;;;;;;;;;;;;6.69;46.07;96591.44;4983461;28;19974;-62
2021/09/21 06:34:08;;;;;;;;;;;;;;;6.85;46.23;96602.44;4983168;28;19966;-62
2021/09/21 06:36:33;;;;;;;;;;;;;;;7.05;46.04;96609.66;4982755;28;19994;-62
2021/09/21 06:38:58;;;;;;;;;;;;;;;7.21;45.25;96598.59;4983070;28;20091;-62
2021/09/21 06:41:23;;;;;;;;;;;;;;;7.34;45.60;96601.84;4982748;28;20002;-62
2021/09/21 06:43:49;;;;;;;;;;;;;;;7.54;45.70;96601.91;4982424;28;19986;-62
2021/09/21 06:46:14;;;;;;;;;;;;;;;7.76;44.91;96602.66;4982708;28;19962;-62
2021/09/21 06:48:39;;;;;;;;;;;;;;;7.92;44.97;96602.16;4978318;28;19994;-63
2021/09/21 06:51:08;;;;;;;;;;;;;;;8.06;44.94;96600.91;4982775;28;19977;-63
2021/09/21 06:53:33;;;;;;;;;;;;;;;8.09;44.65;96605.13;4980786;28;20420;-63
2021/09/21 06:55:58;;;;;;;;;;;;;;;8.16;44.38;96600.97;4982007;28;19990;-63
2021/09/21 06:58:23;;;;;;;;;;;;;;;8.29;43.44;96609.47;4982709;28;20394;-63
2021/09/21 07:00:49;;;;;;;;;;;;;;;8.39;43.50;96608.63;4982352;28;20068;-62
2021/09/21 07:03:14;;;;;;;;;;;;;;;8.61;43.60;96612.84;4981878;28;19997;-62
2021/09/21 07:05:39;;;;;;;;;;;;;;;8.78;43.61;96626.38;4982440;28;20586;-62
2021/09/21 07:08:05;;;;;;;;;;;;;;;9.04;42.82;96626.63;4980336;28;19981;-62
2021/09/21 07:10:30;;;;;;;;;;;;;;;9.23;42.65;96626.69;4982357;28;20032;-62
2021/09/21 07:12:55;;;;;;;;;;;;;;;9.42;42.51;96608.03;4981280;28;19994;-62
2021/09/21 07:15:23;;;;;;;;;;;;;;;9.39;43.95;96607.50;4981796;28;20396;-62
2021/09/21 07:17:49;;;;;;;;;;;;;;;9.62;43.30;96612.44;4981539;28;20085;-62
2021/09/21 07:20:15;;;;;;;;;;;;;;;9.65;44.56;96606.84;4981149;28;20088;-63
2021/09/21 07:22:40;;;;;;;;;;;;;;;9.69;44.90;96613.53;4980786;28;19996;-62
2021/09/21 07:25:05;;;;;;;;;;;;;;;9.78;44.87;96599.34;4981578;28;19993;-62
2021/09/21 07:27:31;;;;;;;;;;;;;;;9.90;44.28;96589.34;4980579;28;19970;-62
2021/09/21 07:29:56;;;;;;;;;;;;;;;10.13;43.58;96604.06;4982060;28;20009;-62
2021/09/21 07:32:21;;;;;;;;;;;;;;;10.21;43.61;96628.91;4981049;28;19998;-62
2021/09/21 07:34:46;;;;;;;;;;;;;;;10.41;42.93;96623.47;4981085;28;19970;-62
2021/09/21 07:37:13;;;;;;;;;;;;;;;10.55;42.55;96616.75;4982814;28;19997;-62
2021/09/21 07:39:38;;;;;;;;;;;;;;;10.61;42.88;96642.75;4984935;28;20354;-62
2021/09/21 07:42:03;;;;;;;;;;;;;;;10.60;42.73;96651.75;4985611;28;19918;-62
2021/09/21 07:44:29;;;;;;;;;;;;;;;10.88;41.93;96643.66;4984944;28;20065;-62
2021/09/21 07:46:55;;;;;;;;;;;;;;;11.09;41.74;96652.31;4985149;28;19980;-62
2021/09/21 07:49:20;;;;;;;;;;;;;;;11.21;40.75;96668.88;4984180;28;19922;-62
2021/09/21 07:51:45;;;;;;;;;;;;;;;11.28;41.52;96661.94;4986100;28;19924;-62
2021/09/21 07:54:11;;;;;;;;;;;;;;;11.30;40.99;96675.97;4985295;28;20017;-62
2021/09/21 07:56:36;;;;;;;;;;;;;;;11.47;40.82;96676.06;4985407;28;20394;-62
2021/09/21 07:59:03;;;;;;;;;;;;;;;11.69;40.23;96674.66;4985203;28;20367;-62
2021/09/21 08:01:29;;;;;;;;;;;;;;;12.02;39.62;96677.47;4984181;28;19925;-65
2021/09/21 08:03:55;;;;;;;;;;;;;;;12.09;38.83;96679.53;4984136;28;19928;-65
2021/09/21 08:06:20;;;;;;;;;;;;;;;12.23;38.95;96686.06;4985469;28;19914;-65
2021/09/21 08:08:45;;;;;;;;;;;;;;;12.28;39.10;96691.78;4983315;28;19921;-65
2021/09/21 08:11:11;;;;;;;;;;;;;;;12.30;38.49;96695.09;4985370;28;19923;-65
2021/09/21 08:13:36;;;;;;;;;;;;;;;12.46;37.32;96701.50;4987525;28;19961;-65
2021/09/21 08:16:01;;;;;;;;;;;;;;;12.52;36.65;96692.84;4990047;28;19929;-65
2021/09/21 08:18:26;;;;;;;;;;;;;;;12.56;37.79;96707.53;4984061;28;19926;-66
2021/09/21 08:20:52;;;;;;;;;;;;;;;12.86;37.69;96697.22;4986335;28;20230;-66
2021/09/21 08:23:17;;;;;;;;;;;;;;;12.87;37.33;96693.53;4987203;28;20351;-66
2021/09/21 08:25:42;;;;;;;;;;;;;;;12.98;38.07;96700.38;4987167;28;19929;-66
2021/09/21 08:28:08;;;;;;;;;;;;;;;13.18;37.53;96700.94;4986450;28;19937;-66
2021/09/21 08:30:33;;;;;;;;;;;;;;;13.27;37.29;96706.25;4987205;28;20466;-66
2021/09/21 08:32:58;;;;;;;;;;;;;;;13.30;37.28;96706.75;4985566;28;19913;-65
2021/09/21 08:35:24;;;;;;;;;;;;;;;13.16;36.88;96718.16;4984127;28;19923;-65
2021/09/21 08:37:49;;;;;;;;;;;;;;;13.23;36.77;96718.31;4985216;28;20073;-66
2021/09/21 08:40:14;;;;;;;;;;;;;;;13.38;36.53;96721.13;4983938;28;19968;-66
2021/09/21 08:42:39;;;;;;;;;;;;;;;13.56;35.73;96728.94;4988927;28;20405;-66
2021/09/21 08:45:05;;;;;;;;;;;;;;;13.50;34.93;96718.94;4986878;28;19921;-64
2021/09/21 08:47:31;;;;;;;;;;;;;;;13.70;36.63;96701.50;4984519;28;19918;-65
2021/09/21 08:49:56;;;;;;;;;;;;;;;13.87;35.49;96709.47;4981284;28;19914;-65
2021/09/21 08:52:21;;;;;;;;;;;;;;;14.18;34.99;96713.25;4984561;28;19918;-65
2021/09/21 08:54:47;;;;;;;;;;;;;;;14.39;34.92;96707.28;4985762;28;19965;-66
2021/09/21 08:57:12;;;;;;;;;;;;;;;14.61;34.30;96710.16;4986284;28;19968;-66
2021/09/21 08:59:37;;;;;;;;;;;;;;;14.72;34.58;96703.56;4984347;28;19913;-67
2021/09/21 09:02:11;;;;;;;;;;;;;;;14.94;35.31;96715.34;4984960;28;19921;-66
2021/09/21 09:04:37;;;;;;;;;;;;;;;15.10;33.73;96713.56;4983857;28;19925;-67
2021/09/21 09:07:02;;;;;;;;;;;;;;;15.16;34.27;96712.81;4983515;28;20374;-67
2021/09/21 09:09:30;;;;;;;;;;;;;;;15.19;34.24;96717.81;4984824;28;19964;-65
2021/09/21 09:11:56;;;;;;;;;;;;;;;15.01;32.87;96719.97;4983467;28;19918;-64
2021/09/21 09:14:22;;;;;;;;;;;;;;;15.07;35.13;96721.94;4984053;28;20428;-64
2021/09/21 09:16:51;;;;;;;;;;;;;;;15.05;35.08;96735.53;4999287;28;19957;-64
2021/09/21 09:19:16;;;;;;;;;;;;;;;14.96;32.67;96736.63;4984553;28;19914;-64
2021/09/21 09:21:43;;;;;;;;;;;;;;;15.10;32.22;96737.69;4982674;28;19926;-64
2021/09/21 09:24:13;;;;;;;;;;;;;;;15.21;33.41;96742.63;4982207;28;19925;-64
2021/09/21 09:26:39;;;;;;;;;;;;;;;15.18;33.72;96752.88;4983741;28;20048;-64
2021/09/21 09:29:08;;;;;;;;;;;;;;;15.26;31.64;96743.94;4983596;28;19917;-64
2021/09/21 09:31:34;;;;;;;;;;;;;;;15.45;30.00;96745.25;4982604;28;19928;-64
2021/09/21 09:34:13;;;;;;;;;;;;;;;15.31;33.07;96737.00;4983031;28;20302;-64
2021/09/21 09:36:45;;;;;;;;;;;;;;;15.48;30.15;96737.72;4983083;28;19949;-64
2021/09/21 09:39:10;;;;;;;;;;;;;;;15.92;29.06;96729.91;4983408;28;19928;-64
2021/09/21 09:41:37;;;;;;;;;;;;;;;16.05;30.75;96731.09;4982936;28;20404;-65
2021/09/21 09:44:06;;;;;;;;;;;;;;;16.24;31.29;96729.69;4983537;28;20243;-65
2021/09/21 09:46:40;;;;;;;;;;;;;;;16.45;28.32;96745.06;4983122;28;19933;-67
2021/09/21 09:49:07;;;;;;;;;;;;;;;16.74;26.92;96737.97;4983282;28;20476;-66
2021/09/21 09:51:32;;;;;;;;;;;;;;;16.80;28.75;96732.84;4988598;28;19925;-66
2021/09/21 09:53:58;;;;;;;;;;;;;;;16.90;30.23;96736.88;4996494;28;20146;-66
2021/09/21 09:56:23;;;;;;;;;;;;;;;17.27;27.24;96728.75;4997869;28;19913;-67
2021/09/21 09:58:48;;;;;;;;;;;;;;;17.30;24.81;96721.34;5002173;28;19952;-66
2021/09/21 10:01:14;;;;;;;;;;;;;;;17.29;26.98;96712.41;5000410;28;19914;-66
2021/09/21 10:03:40;;;;;;;;;;;;;;;17.08;26.90;96707.88;4977373;28;19918;-66
2021/09/21 10:06:05;;;;;;;;;;;;;;;17.31;28.50;96720.31;4989105;28;19920;-66
2021/09/21 10:08:30;;;;;;;;;;;;;;;17.92;25.81;96711.63;4982802;28;19922;-66
2021/09/21 10:10:55;;;;;;;;;;;;;;;18.43;25.05;96709.59;4984198;28;20013;-66
2021/09/21 10:13:21;;;;;;;;;;;;;;;18.23;25.75;96714.06;4972722;28;19976;-66
2021/09/21 10:15:46;;;;;;;;;;;;;;;18.37;27.48;96723.03;4993075;28;19918;-66
2021/09/21 10:18:30;;;;;;;;;;;;;;;18.37;27.44;96731.97;4996089;28;20362;-66
2021/09/21 10:21:00;;;;;;;;;;;;;;;18.55;25.78;96727.88;4990425;28;19991;-67
2021/09/21 10:23:39;;;;;;;;;;;;;;;18.84;22.85;96730.47;4990820;28;19970;-67
2021/09/21 10:26:14;;;;;;;;;;;;;;;18.84;25.04;96741.28;4995989;28;19927;-67
2021/09/21 10:28:40;;;;;;;;;;;;;;;18.93;25.81;96740.88;4987996;28;19924;-67
2021/09/21 10:31:10;;;;;;;;;;;;;;;19.11;26.07;96739.47;4983835;28;19937;-67
2021/09/21 10:33:35;;;;;;;;;;;;;;;19.18;26.16;96739.47;4985190;28;19922;-66
2021/09/21 10:36:00;;;;;;;;;;;;;;;19.50;23.94;96744.25;4987291;28;20012;-64
2021/09/21 10:38:26;;;;;;;;;;;;;;;19.29;23.97;96746.97;4983377;28;19914;-64
2021/09/21 10:41:01;;;;;;;;;;;;;;;19.29;22.21;96749.69;4977706;28;19926;-64
2021/09/21 10:43:27;;;;;;;;;;;;;;;19.51;22.91;96748.66;4981505;28;20391;-63
2021/09/21 10:46:13;;;;;;;;;;;;;;;19.30;24.72;96748.63;4987128;28;19959;-64
2021/09/21 10:48:39;;;;;;;;;;;;;;;19.19;23.52;96754.63;4966685;28;20224;-65
2021/09/21 10:51:05;;;;;;;;;;;;;;;19.03;25.31;96753.97;4977964;28;19922;-65
2021/09/21 10:53:30;;;;;;;;;;;;;;;18.97;25.76;96762.06;4982702;28;19921;-65
2021/09/21 10:55:58;;;;;;;;;;;;;;;19.12;25.54;96770.81;4982332;28;20243;-65
2021/09/21 10:58:24;;;;;;;;;;;;;;;19.25;21.88;96767.28;4983786;28;20444;-65
2021/09/21 11:00:49;;;;;;;;;;;;;;;18.98;21.38;96761.00;4983243;28;19993;-64
2021/09/21 11:03:14;;;;;;;;;;;;;;;19.26;22.93;96755.47;4983160;28;19948;-64
2021/09/21 11:05:40;;;;;;;;;;;;;;;19.40;23.95;96758.19;4982293;28;19976;-64
2021/09/21 11:08:08;;;;;;;;;;;;;;;19.83;23.11;96755.06;4983222;28;19929;-64
2021/09/21 11:10:34;;;;;;;;;;;;;;;19.65;21.85;96757.56;4982351;28;20433;-65
2021/09/21 11:12:59;;;;;;;;;;;;;;;19.66;23.72;96748.41;4985670;28;19968;-64
2021/09/21 11:15:26;;;;;;;;;;;;;;;19.89;24.59;96748.00;4987783;28;19925;-65
2021/09/21 11:18:04;;;;;;;;;;;;;;;20.00;24.78;96754.66;4987053;28;19930;-65
2021/09/21 11:20:30;;;;;;;;;;;;;;;20.10;21.84;96759.63;5001109;28;20284;-64
2021/09/21 11:22:58;;;;;;;;;;;;;;;20.02;21.88;96759.84;4996247;28;20426;-64
2021/09/21 11:25:26;;;;;;;;;;;;;;;20.36;23.18;96758.69;5000258;28;20008;-63
2021/09/21 11:27:52;;;;;;;;;;;;;;;20.61;23.66;96752.53;4993190;28;21498;-63
2021/09/21 11:30:17;;;;;;;;;;;;;;;20.78;22.21;96757.50;4990351;28;19941;-64
2021/09/21 11:32:43;;;;;;;;;;;;;;;20.74;20.48;96753.59;4990162;28;20371;-62
2021/09/21 11:35:09;;;;;;;;;;;;;;;20.84;21.57;96755.81;4985176;28;19918;-63
2021/09/21 11:37:34;;;;;;;;;;;;;;;20.95;22.81;96760.53;4984927;28;19999;-64
2021/09/21 11:40:00;;;;;;;;;;;;;;;20.60;22.36;96752.78;4986266;28;19921;-63
2021/09/21 11:42:32;;;;;;;;;;;;;;;20.93;22.11;96748.25;4986678;28;19945;-63
2021/09/21 11:44:58;;;;;;;;;;;;;;;21.32;20.95;96761.78;4989206;28;19956;-62
2021/09/21 11:47:23;;;;;;;;;;;;;;;21.38;22.28;96753.59;4987909;28;19921;-64
2021/09/21 11:49:52;;;;;;;;;;;;;;;21.75;21.84;96752.03;4981175;28;20342;-65
2021/09/21 11:52:18;;;;;;;;;;;;;;;21.80;20.35;96752.22;4985681;28;20313;-65
2021/09/21 11:54:43;;;;;;;;;;;;;;;21.92;21.36;96754.22;4984997;28;19925;-66
2021/09/21 11:57:08;;;;;;;;;;;;;;;22.31;20.49;96754.84;4987466;28;20024;-64
2021/09/21 11:59:34;;;;;;;;;;;;;;;22.61;21.54;96750.56;4986165;28;19913;-64
2021/09/21 12:01:59;;;;;;;;;;;;;;;22.88;18.82;96764.59;4984508;28;19917;-64
2021/09/21 12:04:24;;;;;;;;;;;;;;;22.94;21.35;96757.41;4991374;28;19925;-64
2021/09/21 12:06:49;;;;;;;;;;;;;;;22.96;20.38;96749.88;4986866;28;20378;-65
2021/09/21 12:09:15;;;;;;;;;;;;;;;23.58;19.25;96750.63;4985145;28;19960;-65
2021/09/21 12:11:43;;;;;;;;;;;;;;;23.54;18.58;96749.44;4984893;28;19933;-65
2021/09/21 12:14:08;;;;;;;;;;;;;;;23.84;16.60;96740.38;4985718;28;19933;-65
2021/09/21 12:16:34;;;;;;;;;;;;;;;24.04;18.97;96747.34;4985165;28;19922;-65
2021/09/21 12:19:00;;;;;;;;;;;;;;;23.14;18.46;96748.16;4984581;28;20083;-64
2021/09/21 12:21:26;;;;;;;;;;;;;;;23.76;20.07;96751.63;4984076;28;19933;-64
2021/09/21 12:23:51;;;;;;;;;;;;;;;24.02;19.75;96739.41;4984113;28;19944;-63
2021/09/21 12:26:17;;;;;;;;;;;;;;;24.18;18.26;96742.47;4999760;28;20253;-63
2021/09/21 12:28:44;;;;;;;;;;;;;;;24.07;19.47;96736.78;4983797;28;19945;-63
2021/09/21 12:31:13;;;;;;;;;;;;;;;23.73;18.88;96739.28;4985676;28;20433;-63
2021/09/21 12:33:38;;;;;;;;;;;;;;;23.22;18.48;96738.88;4985126;28;19933;-63
2021/09/21 12:36:04;;;;;;;;;;;;;;;22.48;18.08;96730.66;4983932;28;19921;-63
2021/09/21 12:38:29;;;;;;;;;;;;;;;22.00;20.39;96735.75;4986445;28;20216;-63
2021/09/21 12:40:58;;;;;;;;;;;;;;;20.86;20.62;96735.59;4984837;28;20036;-63
2021/09/21 12:43:24;;;;;;;;;;;;;;;20.17;21.48;96741.50;4985572;28;19968;-63
2021/09/21 12:45:50;;;;;;;;;;;;;;;18.76;22.60;96732.31;4985408;28;19922;-64
2021/09/21 12:48:15;;;;;;;;;;;;;;;19.70;22.35;96728.91;4982664;28;20401;-65
2021/09/21 12:50:41;;;;;;;;;;;;;;;20.33;22.51;96731.25;4985310;28;19922;-68
2021/09/21 12:53:07;;;;;;;;;;;;;;;20.36;22.61;96739.75;4970839;28;19922;-64
2021/09/21 12:55:33;;;;;;;;;;;;;;;20.01;21.73;96737.38;4968754;28;20475;-64
2021/09/21 12:57:58;;;;;;;;;;;;;;;20.51;21.89;96729.72;4981218;28;19921;-65